logo
Search for airport 
image banner adimage banner adimage banner ad
image banner ad

FATR - Twee Rivieren

Located in Qolora, South Africa

ICAO - FATR, IATA -

Data provided by Airmate  

General information

Coordinates: S32°38'26" E28°25'23"
Elevation is 2910 feet MSL.
Magnetic variation is -17° East
View others Airports in Eastern Cape

Operational data

Special qualification required
Current time UTC:
Current local time:
Weather at : FAEL - King Phalo ( 71 km )
METAR: FAEL 220900Z 18006KT 9999 SCT015 OVC018 21/17 Q1024
TAF: TAF FAEL 220600Z 2207/2218 VRB03KT 9999 FEW010 BKN025 TX25/2210Z TN17/2218Z PROB30 TEMPO 2207/2209 BKN010 BECMG 2212/2214 SCT025
View NOTAMs / SUP AIP / TFR affecting this airport [VIEW]
Communications frequencies: [VIEW]

Runways:

RWY identifierQFULength (ft)Width (ft)SurfaceLDA (ft)
14178°590666ASPH
32358°590666ASPH
03216863GRASS
21184°216863GRASS

Airport contact information

Address: Qolora South Africa

Satellite view of FATR